Skip Navigation Links Skip Navigation Links

Current Weather

Fairfield Muni, Fairfield, Ill.

For information only: do not use for flight planning or navigation.
Latest weather
Observation time Thursday, January 27, 2022 10:35 PM CST
Local time Thursday, January 27, 2022 11:01 PM CST
Flight conditions Visual Meteorological Conditions
Winds
Wind speed calm
Visibility 10 mi.
Sky condition
Ceiling 4,700 ft. overcast
Cloud layer scattered clouds 3,600 ft.
Cloud layer overcast 4,700 ft.
Temperature 32°F
Dewpoint 24°F
Altimeter 30.23 in.Hg
Derived measurements
Relative humidity 70%
Wind chill 32°F
Density altitude -1659 ft.
Remarks
Fully automated report.
Automated weather observing station without precipitation discriminator.
METAR KFWC 280435Z AUTO 00000KT 10SM SCT036 OVC047 00/M05 A3023 RMK AO1 T00021046

Settings

Location code

InnerDrive.Weather 4.0.6770.0 Release CLR 4.0.30319.42000
Copyright ©2018 Inner Drive Technology. All rights reserved. Portions Copyright ©1986-2018 David Braverman.

Find weather

Site navigation


Skip Navigation Links

Place info

Page info

PayPal - The safer, easier way to pay online!

Return home.

Copyright ©2022 Inner Drive Technology. Purveyors of fine, hand-crafted computer software. Page printed 2022-01-28T05:01:55 UTC.